createdAt,value
2018-04-08T00:00:39.144Z,10.90
2018-04-08T00:03:06.635Z,11.43
2018-04-08T00:05:34.155Z,11.40
2018-04-08T00:08:01.652Z,10.20
2018-04-08T00:10:29.912Z,12.03
2018-04-08T00:12:57.464Z,11.43
2018-04-08T00:15:24.972Z,11.47
2018-04-08T00:17:52.472Z,10.67
2018-04-08T00:20:20.097Z,11.23
2018-04-08T00:22:47.599Z,11.97
2018-04-08T00:25:15.097Z,10.57
2018-04-08T00:27:42.640Z,11.13
2018-04-08T00:30:10.145Z,11.37
2018-04-08T00:32:37.640Z,11.73
2018-04-08T00:35:05.192Z,12.40
2018-04-08T00:37:32.684Z,11.40
2018-04-08T00:40:00.945Z,11.23
2018-04-08T00:42:29.450Z,12.80
2018-04-08T00:44:57.728Z,12.57
2018-04-08T00:47:25.228Z,11.43
2018-04-08T00:49:52.764Z,11.80
2018-04-08T00:52:20.268Z,12.73
2018-04-08T00:54:47.765Z,12.60
2018-04-08T00:57:15.315Z,12.03
2018-04-08T00:59:42.828Z,11.93
2018-04-08T01:02:10.324Z,12.57
2018-04-08T01:04:37.916Z,12.57
2018-04-08T01:07:05.420Z,11.83
2018-04-08T01:09:32.928Z,12.10
2018-04-08T01:12:00.498Z,11.40
2018-04-08T01:14:28.764Z,12.23
2018-04-08T01:16:56.272Z,11.30
2018-04-08T01:19:23.816Z,11.63
2018-04-08T01:21:51.316Z,11.57
2018-04-08T01:24:18.819Z,12.27
2018-04-08T01:26:46.360Z,11.87
2018-04-08T01:29:13.857Z,12.23
2018-04-08T01:31:41.366Z,13.47
2018-04-08T01:34:08.941Z,12.43
2018-04-08T01:36:36.506Z,12.10
2018-04-08T01:39:04.008Z,11.97
2018-04-08T01:41:31.552Z,11.87
2018-04-08T01:43:59.060Z,12.47
2018-04-08T01:46:26.568Z,12.77
2018-04-08T01:48:54.112Z,12.63
2018-04-08T01:51:21.613Z,12.63
2018-04-08T01:53:49.113Z,12.37
2018-04-08T01:56:17.442Z,12.50
2018-04-08T01:58:44.949Z,13.40
2018-04-08T02:01:12.441Z,13.23
2018-04-08T02:03:40.808Z,13.03
2018-04-08T02:06:09.075Z,13.13
2018-04-08T02:08:36.585Z,12.47
2018-04-08T02:11:04.116Z,13.53
2018-04-08T02:13:32.368Z,13.50
2018-04-08T02:15:59.864Z,13.47
2018-04-08T02:18:27.397Z,13.47
2018-04-08T02:20:55.133Z,14.47
2018-04-08T02:23:22.640Z,13.60
2018-04-08T02:25:50.969Z,14.27
2018-04-08T02:28:18.471Z,13.00
2018-04-08T02:30:46.757Z,13.13
2018-04-08T02:33:14.308Z,13.10
2018-04-08T02:35:41.800Z,13.67
2018-04-08T02:38:09.313Z,14.60
2018-04-08T02:40:36.861Z,14.17
2018-04-08T02:43:04.357Z,14.37
2018-04-08T02:45:31.854Z,14.10
2018-04-08T02:47:59.392Z,11.93
2018-04-08T02:50:26.884Z,13.67
2018-04-08T02:52:54.385Z,13.80
2018-04-08T02:55:21.952Z,14.30
2018-04-08T02:57:49.452Z,14.07
2018-04-08T03:00:16.953Z,14.57
2018-04-08T03:02:44.506Z,14.07
2018-04-08T03:05:12.004Z,13.83
2018-04-08T03:07:39.501Z,14.63
2018-04-08T03:10:07.031Z,13.67
2018-04-08T03:12:34.532Z,13.90
2018-04-08T03:15:02.039Z,12.90
2018-04-08T03:17:30.353Z,14.67
2018-04-08T03:19:57.852Z,14.17
2018-04-08T03:22:25.347Z,14.63
2018-04-08T03:24:53.690Z,14.50
2018-04-08T03:27:21.192Z,14.57
2018-04-08T03:29:49.452Z,13.80
2018-04-08T03:32:16.972Z,16.20
2018-04-08T03:34:44.496Z,15.03
2018-04-08T03:37:11.992Z,15.73
2018-04-08T03:39:39.531Z,15.37
2018-04-08T03:42:07.033Z,15.13
2018-04-08T03:44:34.540Z,15.03
2018-04-08T03:47:02.156Z,15.13
2018-04-08T03:49:29.621Z,14.90
2018-04-08T03:51:57.847Z,16.20
2018-04-08T03:54:25.387Z,16.27
2018-04-08T03:56:53.652Z,16.43
2018-04-08T03:59:21.153Z,14.93
2018-04-08T04:01:48.716Z,15.40
2018-04-08T04:04:16.213Z,15.93
2018-04-08T04:06:43.717Z,15.87
2018-04-08T04:09:11.231Z,15.13
2018-04-08T04:11:38.740Z,16.33
2018-04-08T04:14:06.239Z,16.10
2018-04-08T04:16:33.808Z,15.53
2018-04-08T04:19:13.020Z,16.77
2018-04-08T04:21:52.336Z,16.37
2018-04-08T04:24:31.552Z,16.00
2018-04-08T04:26:59.836Z,15.33
2018-04-08T04:29:28.107Z,16.30
2018-04-08T04:31:55.600Z,16.83
2018-04-08T04:34:23.121Z,15.80
2018-04-08T04:36:51.540Z,16.70
2018-04-08T04:39:19.040Z,16.13
2018-04-08T04:41:46.766Z,16.20
2018-04-08T04:44:14.264Z,16.40
2018-04-08T04:46:41.764Z,16.37
2018-04-08T04:49:10.362Z,16.33
2018-04-08T04:51:37.861Z,17.47
2018-04-08T04:54:05.353Z,14.60
2018-04-08T04:56:33.666Z,17.37
2018-04-08T04:59:01.176Z,17.00
2018-04-08T05:01:28.675Z,16.50
2018-04-08T05:03:56.203Z,16.57
2018-04-08T05:06:23.696Z,16.83
2018-04-08T05:08:51.183Z,16.27
2018-04-08T05:11:18.764Z,16.87
2018-04-08T05:13:46.292Z,17.30
2018-04-08T05:16:13.904Z,17.63
2018-04-08T05:18:41.447Z,16.63
2018-04-08T05:21:08.942Z,16.07
2018-04-08T05:23:36.444Z,16.87
2018-04-08T05:26:03.955Z,16.67
2018-04-08T05:28:31.452Z,17.13
2018-04-08T05:30:58.959Z,16.77
2018-04-08T05:33:26.521Z,16.20
2018-04-08T05:35:54.746Z,18.03
2018-04-08T05:38:22.249Z,17.37
2018-04-08T05:40:49.797Z,17.20
2018-04-08T05:43:17.304Z,16.30
2018-04-08T05:45:45.575Z,17.47
2018-04-08T05:48:13.880Z,17.33
2018-04-08T05:50:41.387Z,17.07
2018-04-08T05:53:08.886Z,16.83
2018-04-08T05:55:37.186Z,16.90
2018-04-08T05:58:04.725Z,16.20
2018-04-08T06:00:32.241Z,17.30
2018-04-08T06:02:59.777Z,16.30
2018-04-08T06:05:27.277Z,16.10
2018-04-08T06:07:56.974Z,17.13
2018-04-08T06:10:24.502Z,15.73
2018-04-08T06:12:51.995Z,15.87
2018-04-08T06:15:19.503Z,15.43
2018-04-08T06:17:47.104Z,15.57
2018-04-08T06:20:14.788Z,16.00
2018-04-08T06:22:42.292Z,17.30
2018-04-08T06:25:09.847Z,16.33
2018-04-08T06:27:37.361Z,16.37
2018-04-08T06:30:04.933Z,15.23
2018-04-08T06:32:32.466Z,16.23
2018-04-08T06:34:59.973Z,15.53
2018-04-08T06:37:28.267Z,16.20
2018-04-08T06:39:55.788Z,16.17
2018-04-08T06:42:23.306Z,15.43
2018-04-08T06:44:50.821Z,15.37
2018-04-08T06:47:18.410Z,15.70
2018-04-08T06:49:45.911Z,15.83
2018-04-08T06:52:14.180Z,15.50
2018-04-08T06:54:41.718Z,15.10
2018-04-08T06:57:09.233Z,15.57
2018-04-08T06:59:36.736Z,15.33
2018-04-08T07:02:04.291Z,15.50
2018-04-08T07:04:31.792Z,15.53
2018-04-08T07:06:59.296Z,14.97
2018-04-08T07:09:26.864Z,15.50
2018-04-08T07:11:55.132Z,15.73
2018-04-08T07:14:22.624Z,15.03
2018-04-08T07:16:50.173Z,14.33
2018-04-08T07:19:18.456Z,15.03
2018-04-08T07:21:46.747Z,15.20
2018-04-08T07:24:14.276Z,15.47
2018-04-08T07:26:42.542Z,14.23
2018-04-08T07:29:10.051Z,14.63
2018-04-08T07:31:37.623Z,15.47
2018-04-08T07:34:05.885Z,15.20
2018-04-08T07:36:33.392Z,14.50
2018-04-08T07:39:00.932Z,15.93
2018-04-08T07:41:28.431Z,16.00
2018-04-08T07:43:56.697Z,15.67
2018-04-08T07:46:24.228Z,15.57
2018-04-08T07:48:51.760Z,15.57
2018-04-08T07:51:19.264Z,15.80
2018-04-08T07:53:46.856Z,15.03
2018-04-08T07:56:14.361Z,14.93
2018-04-08T07:58:41.858Z,15.50
2018-04-08T08:01:09.400Z,15.93
2018-04-08T08:03:36.897Z,15.23
2018-04-08T08:06:05.188Z,13.83
2018-04-08T08:08:33.491Z,15.30
2018-04-08T08:11:01.001Z,15.63
2018-04-08T08:13:28.499Z,15.23
2018-04-08T08:15:56.050Z,15.00
2018-04-08T08:18:23.548Z,15.13
2018-04-08T08:20:51.060Z,14.80
2018-04-08T08:23:18.584Z,15.70
2018-04-08T08:25:46.089Z,14.83
2018-04-08T08:28:14.352Z,14.63
2018-04-08T08:30:41.884Z,13.70
2018-04-08T08:33:09.388Z,13.37
2018-04-08T08:35:37.653Z,14.43
2018-04-08T08:38:05.966Z,14.23
2018-04-08T08:40:33.460Z,14.70
2018-04-08T08:43:00.956Z,14.00
2018-04-08T08:45:28.488Z,13.40
2018-04-08T08:47:55.989Z,14.47
2018-04-08T08:50:23.523Z,14.37
2018-04-08T08:52:51.111Z,14.70
2018-04-08T08:55:18.604Z,14.33
2018-04-08T08:57:46.116Z,14.27
2018-04-08T09:00:14.410Z,14.03
2018-04-08T09:02:41.912Z,14.73
2018-04-08T09:05:09.413Z,13.97
2018-04-08T09:07:37.721Z,14.80
2018-04-08T09:10:05.220Z,13.93
2018-04-08T09:12:32.812Z,13.67
2018-04-08T09:15:00.361Z,13.60
2018-04-08T09:17:27.871Z,14.47
2018-04-08T09:20:04.554Z,13.97
2018-04-08T09:25:36.684Z,14.73
2018-04-08T09:28:04.192Z,14.07
2018-04-08T09:30:31.719Z,15.80
2018-04-08T09:33:00.060Z,14.90
2018-04-08T09:35:27.556Z,15.37
2018-04-08T09:37:55.060Z,15.03
2018-04-08T09:40:22.620Z,14.53
2018-04-08T09:42:50.124Z,15.20
2018-04-08T09:45:17.640Z,15.43
2018-04-08T09:47:45.171Z,15.90
2018-04-08T09:50:12.718Z,14.97
2018-04-08T09:52:40.219Z,15.73
2018-04-08T09:55:07.824Z,15.17
2018-04-08T09:57:40.315Z,15.33
2018-04-08T10:00:07.808Z,14.83
2018-04-08T10:02:37.992Z,14.50
2018-04-08T10:05:05.492Z,14.57
2018-04-08T10:07:32.994Z,15.10
2018-04-08T10:10:00.520Z,15.60
2018-04-08T10:12:28.024Z,14.43
2018-04-08T10:14:55.519Z,14.80
2018-04-08T10:17:23.811Z,15.40
2018-04-08T10:19:51.429Z,14.93
2018-04-08T10:22:18.932Z,14.53
2018-04-08T10:24:46.510Z,13.87
2018-04-08T10:27:14.016Z,14.77
2018-04-08T10:29:41.517Z,15.60
2018-04-08T10:32:09.060Z,15.40
2018-04-08T10:34:37.397Z,14.37
2018-04-08T10:37:04.901Z,15.23
2018-04-08T10:39:33.189Z,14.30
2018-04-08T10:42:00.686Z,14.47
2018-04-08T10:44:28.188Z,14.23
2018-04-08T10:46:55.723Z,14.63
2018-04-08T10:49:23.225Z,15.63
2018-04-08T10:51:51.530Z,14.23
2018-04-08T10:54:19.088Z,14.83
2018-04-08T10:56:46.600Z,14.47
2018-04-08T10:59:14.103Z,14.40
2018-04-08T11:01:41.669Z,14.73
2018-04-08T11:04:09.164Z,14.63
2018-04-08T11:06:36.664Z,15.30
2018-04-08T11:09:04.967Z,14.87
2018-04-08T11:11:32.544Z,15.77
2018-04-08T11:14:00.069Z,14.67
2018-04-08T11:16:28.372Z,15.07
2018-04-08T11:18:55.876Z,14.73
2018-04-08T11:21:23.385Z,14.63
2018-04-08T11:23:50.937Z,14.40
2018-04-08T11:26:18.451Z,14.68
2018-04-08T11:28:45.953Z,14.87
2018-04-08T11:31:13.555Z,14.70
2018-04-08T11:33:41.060Z,15.27
2018-04-08T11:36:08.567Z,15.37
2018-04-08T11:38:36.095Z,15.53
2018-04-08T11:41:04.360Z,15.50
2018-04-08T11:43:31.851Z,14.97
2018-04-08T11:45:59.416Z,15.33
2018-04-08T11:48:26.916Z,15.15
2018-04-08T11:50:54.424Z,14.77
2018-04-08T11:53:21.960Z,15.20
2018-04-08T11:55:49.670Z,15.48
2018-04-08T11:58:17.176Z,15.32
2018-04-08T12:00:44.740Z,14.77
2018-04-08T12:03:12.239Z,14.90
2018-04-08T12:05:39.740Z,14.93
2018-04-08T12:08:07.313Z,15.63
2018-04-08T12:10:34.818Z,15.48
2018-04-08T12:13:02.332Z,14.60
2018-04-08T12:15:29.868Z,15.93
2018-04-08T12:17:57.364Z,14.87
2018-04-08T12:20:24.860Z,13.93
2018-04-08T12:22:52.408Z,14.60
2018-04-08T12:25:19.908Z,15.20
2018-04-08T12:27:47.428Z,15.00
2018-04-08T12:30:15.767Z,15.70
2018-04-08T12:32:43.493Z,15.18
2018-04-08T12:35:10.996Z,15.75
2018-04-08T12:37:38.552Z,14.98
2018-04-08T12:40:06.057Z,14.30
2018-04-08T12:42:33.584Z,15.52
2018-04-08T12:45:01.115Z,15.13
2018-04-08T12:47:28.620Z,16.23
2018-04-08T12:49:56.889Z,15.60
2018-04-08T12:52:24.420Z,15.68
2018-04-08T12:54:51.920Z,15.43
2018-04-08T12:57:20.238Z,15.68
2018-04-08T12:59:47.772Z,17.12
2018-04-08T13:02:16.038Z,15.75
2018-04-08T13:04:43.544Z,16.45
2018-04-08T13:07:11.113Z,15.65
2018-04-08T13:09:38.616Z,16.52
2018-04-08T13:12:06.127Z,15.68
2018-04-08T13:14:33.684Z,16.58
2018-04-08T13:17:01.178Z,17.17
2018-04-08T13:19:28.689Z,17.17
2018-04-08T13:21:56.272Z,14.90
2018-04-08T13:24:23.780Z,15.50
2018-04-08T13:26:51.275Z,16.42
2018-04-08T13:29:18.804Z,15.68
2018-04-08T13:31:47.084Z,15.77
2018-04-08T13:34:14.589Z,16.05
2018-04-08T13:36:42.145Z,15.88
2018-04-08T13:39:09.669Z,14.77
2018-04-08T13:41:37.198Z,15.07
2018-04-08T13:44:04.790Z,15.90
2018-04-08T13:46:33.061Z,15.60
2018-04-08T13:49:01.335Z,15.77
2018-04-08T13:51:29.636Z,14.80
2018-04-08T13:53:57.892Z,14.82
2018-04-08T13:56:25.393Z,16.02
2018-04-08T13:58:52.937Z,15.23
2018-04-08T14:01:20.450Z,15.02
2018-04-08T14:03:47.953Z,14.50
2018-04-08T14:06:15.476Z,15.40
2018-04-08T14:08:42.980Z,16.33
2018-04-08T14:11:10.559Z,14.82
2018-04-08T14:13:38.140Z,15.68
2018-04-08T14:16:05.644Z,14.82
2018-04-08T14:18:33.150Z,14.35
2018-04-08T14:21:00.708Z,14.13
2018-04-08T14:23:28.212Z,14.43
2018-04-08T14:25:55.721Z,15.20
2018-04-08T14:28:23.260Z,15.25
2018-04-08T14:30:50.761Z,14.60
2018-04-08T14:33:18.284Z,15.50
2018-04-08T14:35:45.974Z,15.07
2018-04-08T14:38:13.476Z,14.50
2018-04-08T14:40:40.973Z,13.95
2018-04-08T14:43:08.548Z,13.77
2018-04-08T14:45:36.048Z,15.15
2018-04-08T14:48:03.558Z,14.65
2018-04-08T14:50:31.095Z,15.40
2018-04-08T14:52:59.371Z,15.68
2018-04-08T14:55:27.638Z,14.98
2018-04-08T14:57:55.169Z,15.27
2018-04-08T15:00:22.672Z,15.45
2018-04-08T15:02:50.180Z,13.95
2018-04-08T15:05:17.725Z,14.18
2018-04-08T15:07:45.232Z,14.55
2018-04-08T15:10:12.872Z,15.25
2018-04-08T15:12:40.444Z,13.57
2018-04-08T15:15:07.958Z,14.87
2018-04-08T15:17:35.456Z,14.50
2018-04-08T15:20:03.037Z,15.05
2018-04-08T15:22:30.539Z,14.98
2018-04-08T15:24:58.031Z,14.43
2018-04-08T15:27:25.601Z,14.45
2018-04-08T15:29:53.095Z,14.27
2018-04-08T15:32:20.593Z,14.05
2018-04-08T15:34:48.179Z,14.38
2018-04-08T15:37:15.677Z,14.15
2018-04-08T15:39:43.170Z,13.07
2018-04-08T15:42:10.712Z,14.45
2018-04-08T15:44:38.220Z,14.43
2018-04-08T15:47:05.725Z,14.45
2018-04-08T15:49:34.046Z,14.52
2018-04-08T15:52:01.544Z,13.73
2018-04-08T15:54:29.040Z,13.35
2018-04-08T15:56:56.624Z,13.55
2018-04-08T15:59:24.124Z,14.52
2018-04-08T16:01:51.633Z,13.88
2018-04-08T16:04:19.180Z,14.52
2018-04-08T16:06:47.453Z,14.00
2018-04-08T16:09:15.744Z,14.07
2018-04-08T16:11:43.278Z,14.30
2018-04-08T16:14:11.050Z,12.85
2018-04-08T16:16:38.572Z,14.27
2018-04-08T16:19:06.152Z,13.40
2018-04-08T16:21:33.652Z,13.95
2018-04-08T16:24:01.148Z,12.57
2018-04-08T16:26:28.682Z,13.97
2018-04-08T16:28:56.188Z,13.97
2018-04-08T16:31:27.352Z,13.40
2018-04-08T16:33:58.055Z,14.40
2018-04-08T16:36:25.557Z,13.53
2018-04-08T16:38:53.062Z,13.40
2018-04-08T16:41:20.606Z,13.20
2018-04-08T16:43:48.107Z,13.70
2018-04-08T16:46:15.600Z,12.47
2018-04-08T16:48:43.894Z,12.83
2018-04-08T16:51:11.422Z,13.43
2018-04-08T16:53:38.926Z,13.93
2018-04-08T16:56:06.484Z,12.63
2018-04-08T16:58:33.985Z,13.53
2018-04-08T17:01:01.487Z,12.73
2018-04-08T17:03:29.830Z,12.13
2018-04-08T17:05:57.336Z,12.77
2018-04-08T17:08:24.841Z,12.07
2018-04-08T17:10:52.403Z,12.13
2018-04-08T17:13:19.914Z,13.00
2018-04-08T17:15:47.408Z,13.87
2018-04-08T17:18:14.948Z,14.10
2018-04-08T17:20:42.460Z,13.20
2018-04-08T17:23:09.990Z,13.97
2018-04-08T17:25:37.534Z,13.60
2018-04-08T17:28:05.032Z,14.00
2018-04-08T17:30:32.537Z,14.77
2018-04-08T17:33:00.104Z,13.40
2018-04-08T17:35:27.652Z,13.87
2018-04-08T17:37:55.920Z,14.80
2018-04-08T17:40:23.465Z,14.67
2018-04-08T17:42:50.978Z,15.10
2018-04-08T17:45:18.484Z,14.87
2018-04-08T17:47:46.089Z,14.37
2018-04-08T17:50:13.584Z,14.80
2018-04-08T17:52:41.080Z,14.23
2018-04-08T17:55:08.647Z,14.97
2018-04-08T17:57:36.920Z,14.47
2018-04-08T18:00:04.432Z,13.87
2018-04-08T18:02:32.110Z,13.67
2018-04-08T18:04:59.608Z,15.13
2018-04-08T18:07:27.873Z,15.77
2018-04-08T18:09:55.428Z,14.80
2018-04-08T18:12:22.939Z,14.37
2018-04-08T18:14:50.476Z,14.93
2018-04-08T18:17:18.828Z,14.33
2018-04-08T18:19:46.328Z,14.37
2018-04-08T18:22:13.824Z,13.70
2018-04-08T18:24:41.348Z,13.93
2018-04-08T18:27:08.844Z,14.10
2018-04-08T18:29:36.348Z,13.83
2018-04-08T18:32:03.900Z,13.17
2018-04-08T18:34:31.401Z,13.87
2018-04-08T18:36:58.912Z,14.20
2018-04-08T18:39:26.489Z,13.93
2018-04-08T18:41:53.986Z,14.20
2018-04-08T18:44:21.488Z,13.40
2018-04-08T18:46:49.840Z,13.73
2018-04-08T18:49:17.341Z,13.00
2018-04-08T18:51:44.851Z,14.17
2018-04-08T18:54:12.392Z,13.53
2018-04-08T18:56:39.904Z,13.60
2018-04-08T18:59:07.410Z,13.80
2018-04-08T19:01:34.998Z,14.50
2018-04-08T19:04:02.500Z,12.77
2018-04-08T19:06:30.006Z,13.27
2018-04-08T19:08:57.566Z,13.63
2018-04-08T19:11:25.082Z,13.07
2018-04-08T19:13:53.211Z,13.87
2018-04-08T19:16:20.801Z,13.70
2018-04-08T19:18:48.474Z,12.87
2018-04-08T19:21:15.984Z,13.37
2018-04-08T19:23:43.560Z,12.57
2018-04-08T19:26:11.064Z,12.40
2018-04-08T19:28:38.574Z,13.77
2018-04-08T19:31:06.124Z,12.90
2018-04-08T19:33:33.652Z,13.00
2018-04-08T19:36:01.153Z,13.03
2018-04-08T19:38:28.704Z,12.60
2018-04-08T19:40:56.241Z,12.60
2018-04-08T19:43:23.761Z,12.87
2018-04-08T19:45:51.348Z,13.07
2018-04-08T19:48:19.631Z,12.80
2018-04-08T19:50:47.127Z,13.07
2018-04-08T19:53:14.680Z,12.47
2018-04-08T19:55:42.952Z,13.43
2018-04-08T19:58:10.456Z,13.37
2018-04-08T20:00:38.764Z,12.40
2018-04-08T20:03:06.271Z,12.20
2018-04-08T20:05:33.812Z,13.10
2018-04-08T20:08:02.116Z,13.00
2018-04-08T20:10:29.617Z,12.70
2018-04-08T20:12:57.113Z,13.20
2018-04-08T20:15:25.494Z,12.97
2018-04-08T20:17:53.756Z,12.50
2018-04-08T20:20:21.257Z,11.50
2018-04-08T20:22:48.845Z,13.23
2018-04-08T20:25:16.341Z,13.30
2018-04-08T20:27:43.840Z,12.03
2018-04-08T20:30:11.405Z,12.57
2018-04-08T20:32:38.906Z,12.50
2018-04-08T20:35:06.404Z,12.60
2018-04-08T20:37:34.740Z,12.23
2018-04-08T20:40:02.240Z,12.83
2018-04-08T20:42:30.509Z,12.70
2018-04-08T20:44:58.056Z,12.20
2018-04-08T20:47:25.556Z,12.10
2018-04-08T20:49:53.062Z,13.17
2018-04-08T20:52:20.644Z,12.67
2018-04-08T20:54:48.153Z,12.70
2018-04-08T20:57:15.660Z,12.43
2018-04-08T20:59:43.180Z,12.10
2018-04-08T21:02:10.680Z,12.50
2018-04-08T21:04:38.184Z,11.70
2018-04-08T21:07:05.756Z,12.30
2018-04-08T21:09:33.261Z,11.90
2018-04-08T21:12:00.756Z,12.40
2018-04-08T21:14:28.304Z,11.30
2018-04-08T21:16:55.802Z,11.80
2018-04-08T21:19:29.121Z,11.97
2018-04-08T21:21:56.620Z,12.23
2018-04-08T21:24:24.123Z,12.33
2018-04-08T21:26:51.692Z,12.17
2018-04-08T21:29:19.188Z,12.53
2018-04-08T21:31:46.698Z,11.97
2018-04-08T21:34:14.252Z,12.20
2018-04-08T21:36:41.769Z,12.27
2018-04-08T21:39:10.044Z,12.27
2018-04-08T21:41:37.583Z,12.30
2018-04-08T21:44:05.084Z,11.77
2018-04-08T21:46:33.348Z,11.87
2018-04-08T21:49:00.917Z,11.97
2018-04-08T21:51:29.236Z,12.10
2018-04-08T21:53:56.709Z,12.67
2018-04-08T21:56:24.243Z,12.07
2018-04-08T21:58:51.744Z,11.87
2018-04-08T22:01:19.248Z,11.53
2018-04-08T22:03:46.787Z,11.80
2018-04-08T22:06:15.053Z,11.43
2018-04-08T22:08:42.551Z,12.30
2018-04-08T22:11:10.119Z,12.63
2018-04-08T22:13:37.623Z,11.60
2018-04-08T22:16:05.120Z,11.67
2018-04-08T22:18:33.464Z,11.97
2018-04-08T22:21:00.955Z,12.10
2018-04-08T22:23:29.221Z,11.80
2018-04-08T22:25:56.810Z,11.67
2018-04-08T22:28:24.313Z,11.67
2018-04-08T22:30:51.807Z,12.40
2018-04-08T22:33:19.353Z,11.77
2018-04-08T22:35:46.969Z,12.23
2018-04-08T22:38:14.519Z,11.57
2018-04-08T22:40:42.035Z,11.53
2018-04-08T22:43:09.534Z,12.00
2018-04-08T22:45:37.035Z,11.53
2018-04-08T22:48:04.664Z,12.70
2018-04-08T22:50:32.121Z,12.23
2018-04-08T22:52:59.612Z,13.00
2018-04-08T22:55:27.712Z,12.03
2018-04-08T22:57:55.209Z,11.90
2018-04-08T23:00:25.416Z,12.00
2018-04-08T23:02:53.700Z,11.93
2018-04-08T23:05:21.200Z,12.13
2018-04-08T23:07:48.700Z,12.17
2018-04-08T23:10:16.299Z,11.50
2018-04-08T23:12:43.808Z,11.93
2018-04-08T23:15:11.300Z,12.07
2018-04-08T23:17:39.607Z,11.93
2018-04-08T23:20:07.105Z,11.40
2018-04-08T23:22:34.606Z,10.77
2018-04-08T23:25:02.133Z,11.70
2018-04-08T23:27:29.628Z,11.17
2018-04-08T23:29:57.127Z,11.60
2018-04-08T23:32:24.692Z,11.40
2018-04-08T23:34:52.195Z,10.97
2018-04-08T23:37:19.692Z,11.07
2018-04-08T23:39:47.228Z,11.70
2018-04-08T23:42:14.724Z,12.07
2018-04-08T23:44:42.232Z,11.10
2018-04-08T23:47:09.772Z,11.37
2018-04-08T23:49:37.270Z,11.63
2018-04-08T23:52:05.004Z,10.60
2018-04-08T23:54:32.580Z,11.67
2018-04-08T23:57:00.092Z,11.40
2018-04-08T23:59:28.363Z,10.93
